sensor_id;sensor_type;location;lat;lon;timestamp;temperature;humidity
22948;DHT22;11640;52.520;13.456;2022-07-06T00:00:39;17.00;99.90
22948;DHT22;11640;52.520;13.456;2022-07-06T00:05:40;17.00;99.90
22948;DHT22;11640;52.520;13.456;2022-07-06T00:10:42;16.80;99.90
22948;DHT22;11640;52.520;13.456;2022-07-06T00:15:45;16.70;99.90
22948;DHT22;11640;52.520;13.456;2022-07-06T00:20:47;16.80;99.90
22948;DHT22;11640;52.520;13.456;2022-07-06T00:25:48;16.70;99.90
22948;DHT22;11640;52.520;13.456;2022-07-06T00:30:50;16.70;99.90
22948;DHT22;11640;52.520;13.456;2022-07-06T00:35:53;16.70;99.90
22948;DHT22;11640;52.520;13.456;2022-07-06T00:40:55;16.60;99.90
22948;DHT22;11640;52.520;13.456;2022-07-06T00:45:57;16.60;99.90
22948;DHT22;11640;52.520;13.456;2022-07-06T00:50:59;16.50;99.90
22948;DHT22;11640;52.520;13.456;2022-07-06T00:56:01;16.50;99.90
22948;DHT22;11640;52.520;13.456;2022-07-06T01:01:03;16.40;99.90
22948;DHT22;11640;52.520;13.456;2022-07-06T01:06:05;16.40;99.90
22948;DHT22;11640;52.520;13.456;2022-07-06T01:11:07;16.50;99.90
22948;DHT22;11640;52.520;13.456;2022-07-06T01:16:09;16.40;99.90
22948;DHT22;11640;52.520;13.456;2022-07-06T01:21:14;16.50;99.90
22948;DHT22;11640;52.520;13.456;2022-07-06T01:26:19;16.60;99.90
22948;DHT22;11640;52.520;13.456;2022-07-06T01:31:23;16.60;99.90
22948;DHT22;11640;52.520;13.456;2022-07-06T01:36:25;16.50;99.90
22948;DHT22;11640;52.520;13.456;2022-07-06T01:41:27;16.60;99.90
22948;DHT22;11640;52.520;13.456;2022-07-06T01:46:29;16.60;99.90
22948;DHT22;11640;52.520;13.456;2022-07-06T01:51:31;16.60;99.90
22948;DHT22;11640;52.520;13.456;2022-07-06T01:56:34;16.50;99.90
22948;DHT22;11640;52.520;13.456;2022-07-06T02:01:38;16.60;99.90
22948;DHT22;11640;52.520;13.456;2022-07-06T02:06:40;16.60;99.90
22948;DHT22;11640;52.520;13.456;2022-07-06T02:11:43;16.70;99.90
22948;DHT22;11640;52.520;13.456;2022-07-06T02:16:45;16.70;99.90
22948;DHT22;11640;52.520;13.456;2022-07-06T02:21:51;16.70;99.90
22948;DHT22;11640;52.520;13.456;2022-07-06T02:26:53;16.80;99.90
22948;DHT22;11640;52.520;13.456;2022-07-06T02:31:55;16.70;99.90
22948;DHT22;11640;52.520;13.456;2022-07-06T02:36:57;16.40;99.90
22948;DHT22;11640;52.520;13.456;2022-07-06T02:41:59;16.20;99.90
22948;DHT22;11640;52.520;13.456;2022-07-06T02:47:01;16.00;99.90
22948;DHT22;11640;52.520;13.456;2022-07-06T02:52:04;15.70;99.90
22948;DHT22;11640;52.520;13.456;2022-07-06T02:57:06;15.60;99.90
22948;DHT22;11640;52.520;13.456;2022-07-06T03:02:08;15.60;99.90
22948;DHT22;11640;52.520;13.456;2022-07-06T03:07:10;15.70;99.90
22948;DHT22;11640;52.520;13.456;2022-07-06T03:12:12;15.60;99.90
22948;DHT22;11640;52.520;13.456;2022-07-06T03:17:15;15.50;99.90
22948;DHT22;11640;52.520;13.456;2022-07-06T03:22:17;15.60;99.90
22948;DHT22;11640;52.520;13.456;2022-07-06T03:27:19;15.60;99.90
22948;DHT22;11640;52.520;13.456;2022-07-06T03:32:22;15.60;99.90
22948;DHT22;11640;52.520;13.456;2022-07-06T03:37:24;15.60;99.90
22948;DHT22;11640;52.520;13.456;2022-07-06T03:42:27;15.60;99.90
22948;DHT22;11640;52.520;13.456;2022-07-06T03:47:30;15.50;99.90
22948;DHT22;11640;52.520;13.456;2022-07-06T03:52:34;15.50;99.90
22948;DHT22;11640;52.520;13.456;2022-07-06T03:57:37;15.50;99.90
22948;DHT22;11640;52.520;13.456;2022-07-06T04:02:40;15.40;99.90
22948;DHT22;11640;52.520;13.456;2022-07-06T04:07:48;15.40;99.90
22948;DHT22;11640;52.520;13.456;2022-07-06T04:12:50;15.50;99.90
22948;DHT22;11640;52.520;13.456;2022-07-06T04:17:53;15.40;99.90
22948;DHT22;11640;52.520;13.456;2022-07-06T04:23:00;15.40;99.90
22948;DHT22;11640;52.520;13.456;2022-07-06T04:28:02;15.50;99.90
22948;DHT22;11640;52.520;13.456;2022-07-06T04:33:06;15.60;99.90
22948;DHT22;11640;52.520;13.456;2022-07-06T04:38:09;15.70;99.90
22948;DHT22;11640;52.520;13.456;2022-07-06T04:43:13;15.60;99.90
22948;DHT22;11640;52.520;13.456;2022-07-06T04:48:15;15.50;99.90
22948;DHT22;11640;52.520;13.456;2022-07-06T04:53:17;15.50;99.90
22948;DHT22;11640;52.520;13.456;2022-07-06T04:58:20;15.70;99.90
22948;DHT22;11640;52.520;13.456;2022-07-06T05:03:23;15.80;99.90
22948;DHT22;11640;52.520;13.456;2022-07-06T05:08:26;15.70;99.90
22948;DHT22;11640;52.520;13.456;2022-07-06T05:13:28;15.70;99.90
22948;DHT22;11640;52.520;13.456;2022-07-06T05:18:30;15.60;99.90
22948;DHT22;11640;52.520;13.456;2022-07-06T05:23:33;15.60;99.90
22948;DHT22;11640;52.520;13.456;2022-07-06T05:28:36;15.60;99.90
22948;DHT22;11640;52.520;13.456;2022-07-06T05:33:41;15.70;99.90
22948;DHT22;11640;52.520;13.456;2022-07-06T05:38:44;15.90;99.90
22948;DHT22;11640;52.520;13.456;2022-07-06T05:43:46;15.90;99.90
22948;DHT22;11640;52.520;13.456;2022-07-06T05:48:48;16.00;99.90
22948;DHT22;11640;52.520;13.456;2022-07-06T05:54:09;16.10;99.90
22948;DHT22;11640;52.520;13.456;2022-07-06T05:59:11;16.20;99.90
22948;DHT22;11640;52.520;13.456;2022-07-06T06:04:13;16.30;99.90
22948;DHT22;11640;52.520;13.456;2022-07-06T06:09:15;16.30;99.90
22948;DHT22;11640;52.520;13.456;2022-07-06T06:14:17;16.30;99.90
22948;DHT22;11640;52.520;13.456;2022-07-06T06:19:19;16.50;99.90
22948;DHT22;11640;52.520;13.456;2022-07-06T06:24:21;16.40;99.90
22948;DHT22;11640;52.520;13.456;2022-07-06T06:29:25;16.50;99.90
22948;DHT22;11640;52.520;13.456;2022-07-06T06:34:27;16.80;99.90
22948;DHT22;11640;52.520;13.456;2022-07-06T06:39:29;16.90;99.90
22948;DHT22;11640;52.520;13.456;2022-07-06T06:44:31;17.00;99.90
22948;DHT22;11640;52.520;13.456;2022-07-06T06:49:33;17.10;99.90
22948;DHT22;11640;52.520;13.456;2022-07-06T06:54:35;16.90;99.90
22948;DHT22;11640;52.520;13.456;2022-07-06T06:59:38;17.10;99.90
22948;DHT22;11640;52.520;13.456;2022-07-06T07:04:40;17.20;99.90
22948;DHT22;11640;52.520;13.456;2022-07-06T07:09:42;17.40;99.90
22948;DHT22;11640;52.520;13.456;2022-07-06T07:14:44;17.90;99.90
22948;DHT22;11640;52.520;13.456;2022-07-06T07:19:46;17.70;99.90
22948;DHT22;11640;52.520;13.456;2022-07-06T07:24:48;17.70;99.90
22948;DHT22;11640;52.520;13.456;2022-07-06T07:29:50;18.10;99.90
22948;DHT22;11640;52.520;13.456;2022-07-06T07:34:51;18.20;99.90
22948;DHT22;11640;52.520;13.456;2022-07-06T07:39:53;17.90;99.90
22948;DHT22;11640;52.520;13.456;2022-07-06T07:44:55;17.80;99.90
22948;DHT22;11640;52.520;13.456;2022-07-06T07:49:59;18.00;99.90
22948;DHT22;11640;52.520;13.456;2022-07-06T07:55:01;18.00;99.90
22948;DHT22;11640;52.520;13.456;2022-07-06T08:00:23;18.20;99.90
22948;DHT22;11640;52.520;13.456;2022-07-06T08:05:28;18.70;99.90
22948;DHT22;11640;52.520;13.456;2022-07-06T08:10:31;18.90;99.90
22948;DHT22;11640;52.520;13.456;2022-07-06T08:15:47;18.70;99.90
22948;DHT22;11640;52.520;13.456;2022-07-06T08:20:49;18.90;99.90
22948;DHT22;11640;52.520;13.456;2022-07-06T08:26:10;18.70;99.90
22948;DHT22;11640;52.520;13.456;2022-07-06T08:31:18;18.90;99.90
22948;DHT22;11640;52.520;13.456;2022-07-06T08:36:40;19.00;99.90
22948;DHT22;11640;52.520;13.456;2022-07-06T08:41:42;18.80;99.90
22948;DHT22;11640;52.520;13.456;2022-07-06T08:46:49;19.00;99.90
22948;DHT22;11640;52.520;13.456;2022-07-06T08:51:53;18.80;99.90
22948;DHT22;11640;52.520;13.456;2022-07-06T08:56:56;19.00;99.90
22948;DHT22;11640;52.520;13.456;2022-07-06T09:01:58;18.70;99.90
22948;DHT22;11640;52.520;13.456;2022-07-06T09:07:02;18.80;99.90
22948;DHT22;11640;52.520;13.456;2022-07-06T09:12:10;19.30;99.90
22948;DHT22;11640;52.520;13.456;2022-07-06T09:17:13;19.20;99.90
22948;DHT22;11640;52.520;13.456;2022-07-06T09:22:30;19.20;99.90
22948;DHT22;11640;52.520;13.456;2022-07-06T09:27:40;19.50;99.90
22948;DHT22;11640;52.520;13.456;2022-07-06T09:32:48;19.90;99.90
22948;DHT22;11640;52.520;13.456;2022-07-06T09:38:03;20.20;99.70
22948;DHT22;11640;52.520;13.456;2022-07-06T09:43:14;19.90;98.50
22948;DHT22;11640;52.520;13.456;2022-07-06T09:48:21;19.80;96.50
22948;DHT22;11640;52.520;13.456;2022-07-06T09:53:25;19.40;98.10
22948;DHT22;11640;52.520;13.456;2022-07-06T09:58:27;19.50;98.10
22948;DHT22;11640;52.520;13.456;2022-07-06T10:03:49;19.50;98.50
22948;DHT22;11640;52.520;13.456;2022-07-06T10:08:53;19.90;99.40
22948;DHT22;11640;52.520;13.456;2022-07-06T10:13:57;19.70;99.90
22948;DHT22;11640;52.520;13.456;2022-07-06T10:19:02;19.40;99.90
22948;DHT22;11640;52.520;13.456;2022-07-06T10:24:07;19.30;99.90
22948;DHT22;11640;52.520;13.456;2022-07-06T10:29:09;19.40;99.60
22948;DHT22;11640;52.520;13.456;2022-07-06T10:34:12;19.40;99.90
22948;DHT22;11640;52.520;13.456;2022-07-06T10:39:14;19.80;99.90
22948;DHT22;11640;52.520;13.456;2022-07-06T10:44:44;19.80;99.90
22948;DHT22;11640;52.520;13.456;2022-07-06T10:49:49;19.90;99.80
22948;DHT22;11640;52.520;13.456;2022-07-06T10:55:00;20.00;99.00
22948;DHT22;11640;52.520;13.456;2022-07-06T11:00:04;20.00;98.00
22948;DHT22;11640;52.520;13.456;2022-07-06T11:05:41;20.00;98.70
22948;DHT22;11640;52.520;13.456;2022-07-06T11:11:14;20.30;98.30
22948;DHT22;11640;52.520;13.456;2022-07-06T11:16:19;20.60;98.50
22948;DHT22;11640;52.520;13.456;2022-07-06T11:21:23;20.80;98.20
22948;DHT22;11640;52.520;13.456;2022-07-06T11:26:34;21.20;97.00
22948;DHT22;11640;52.520;13.456;2022-07-06T11:31:43;20.90;97.20
22948;DHT22;11640;52.520;13.456;2022-07-06T11:36:45;20.60;98.60
22948;DHT22;11640;52.520;13.456;2022-07-06T11:41:47;20.60;98.90
22948;DHT22;11640;52.520;13.456;2022-07-06T11:46:52;20.70;98.70
22948;DHT22;11640;52.520;13.456;2022-07-06T11:51:56;20.30;98.20
22948;DHT22;11640;52.520;13.456;2022-07-06T11:56:59;20.30;98.60
22948;DHT22;11640;52.520;13.456;2022-07-06T12:02:06;20.40;97.70
22948;DHT22;11640;52.520;13.456;2022-07-06T12:07:10;20.80;96.00
22948;DHT22;11640;52.520;13.456;2022-07-06T12:12:16;20.90;95.90
22948;DHT22;11640;52.520;13.456;2022-07-06T12:17:19;20.80;96.30
22948;DHT22;11640;52.520;13.456;2022-07-06T12:22:27;20.80;97.00
22948;DHT22;11640;52.520;13.456;2022-07-06T12:27:33;21.20;96.70
22948;DHT22;11640;52.520;13.456;2022-07-06T12:32:35;21.00;96.40
22948;DHT22;11640;52.520;13.456;2022-07-06T12:37:38;20.80;96.20
22948;DHT22;11640;52.520;13.456;2022-07-06T12:42:46;20.70;96.80
22948;DHT22;11640;52.520;13.456;2022-07-06T12:48:03;21.00;96.60
22948;DHT22;11640;52.520;13.456;2022-07-06T12:53:24;21.90;95.10
22948;DHT22;11640;52.520;13.456;2022-07-06T12:58:26;22.00;94.70
22948;DHT22;11640;52.520;13.456;2022-07-06T13:03:38;22.20;93.80
22948;DHT22;11640;52.520;13.456;2022-07-06T13:08:40;21.80;95.20
22948;DHT22;11640;52.520;13.456;2022-07-06T13:13:45;21.90;95.10
22948;DHT22;11640;52.520;13.456;2022-07-06T13:18:47;22.30;93.50
22948;DHT22;11640;52.520;13.456;2022-07-06T13:23:49;22.20;93.80
22948;DHT22;11640;52.520;13.456;2022-07-06T13:28:51;22.00;92.90
22948;DHT22;11640;52.520;13.456;2022-07-06T13:33:53;22.40;92.00
22948;DHT22;11640;52.520;13.456;2022-07-06T13:38:55;22.70;91.20
22948;DHT22;11640;52.520;13.456;2022-07-06T13:43:57;23.30;89.40
22948;DHT22;11640;52.520;13.456;2022-07-06T13:48:59;23.00;89.60
22948;DHT22;11640;52.520;13.456;2022-07-06T13:54:02;23.10;87.90
22948;DHT22;11640;52.520;13.456;2022-07-06T13:59:05;22.80;85.70
22948;DHT22;11640;52.520;13.456;2022-07-06T14:04:07;22.40;87.70
22948;DHT22;11640;52.520;13.456;2022-07-06T14:09:08;22.00;88.10
22948;DHT22;11640;52.520;13.456;2022-07-06T14:14:10;22.60;87.30
22948;DHT22;11640;52.520;13.456;2022-07-06T14:19:12;23.30;80.60
22948;DHT22;11640;52.520;13.456;2022-07-06T14:24:21;23.20;78.60
22948;DHT22;11640;52.520;13.456;2022-07-06T14:29:23;23.20;79.00
22948;DHT22;11640;52.520;13.456;2022-07-06T14:34:25;23.90;76.90
22948;DHT22;11640;52.520;13.456;2022-07-06T14:39:27;23.40;79.70
22948;DHT22;11640;52.520;13.456;2022-07-06T14:44:29;23.10;82.30
22948;DHT22;11640;52.520;13.456;2022-07-06T14:49:31;22.30;87.10
22948;DHT22;11640;52.520;13.456;2022-07-06T14:54:33;21.90;89.70
22948;DHT22;11640;52.520;13.456;2022-07-06T14:59:35;21.70;90.50
22948;DHT22;11640;52.520;13.456;2022-07-06T15:04:37;21.40;90.90
22948;DHT22;11640;52.520;13.456;2022-07-06T15:09:39;20.90;91.90
22948;DHT22;11640;52.520;13.456;2022-07-06T15:14:41;20.70;92.50
22948;DHT22;11640;52.520;13.456;2022-07-06T15:19:44;20.60;93.50
22948;DHT22;11640;52.520;13.456;2022-07-06T15:24:54;20.40;94.60
22948;DHT22;11640;52.520;13.456;2022-07-06T15:29:56;19.70;96.10
22948;DHT22;11640;52.520;13.456;2022-07-06T15:34:58;19.50;96.60
22948;DHT22;11640;52.520;13.456;2022-07-06T15:40:01;19.60;97.00
22948;DHT22;11640;52.520;13.456;2022-07-06T15:45:04;19.30;97.20
22948;DHT22;11640;52.520;13.456;2022-07-06T15:50:07;19.30;97.40
22948;DHT22;11640;52.520;13.456;2022-07-06T15:55:08;19.30;97.30
22948;DHT22;11640;52.520;13.456;2022-07-06T16:00:10;19.40;97.40
22948;DHT22;11640;52.520;13.456;2022-07-06T16:05:13;19.60;97.50
22948;DHT22;11640;52.520;13.456;2022-07-06T16:10:14;19.60;97.50
22948;DHT22;11640;52.520;13.456;2022-07-06T16:15:17;19.90;97.30
22948;DHT22;11640;52.520;13.456;2022-07-06T16:20:19;20.30;96.60
22948;DHT22;11640;52.520;13.456;2022-07-06T16:25:21;20.60;95.80
22948;DHT22;11640;52.520;13.456;2022-07-06T16:30:24;20.90;94.50
22948;DHT22;11640;52.520;13.456;2022-07-06T16:35:26;20.70;94.00
22948;DHT22;11640;52.520;13.456;2022-07-06T16:40:30;20.50;93.80
22948;DHT22;11640;52.520;13.456;2022-07-06T16:45:32;20.60;93.80
22948;DHT22;11640;52.520;13.456;2022-07-06T16:50:35;20.70;93.40
22948;DHT22;11640;52.520;13.456;2022-07-06T16:55:38;20.40;91.60
22948;DHT22;11640;52.520;13.456;2022-07-06T17:00:40;20.30;92.50
22948;DHT22;11640;52.520;13.456;2022-07-06T17:05:42;19.90;93.30
22948;DHT22;11640;52.520;13.456;2022-07-06T17:10:44;19.90;93.50
22948;DHT22;11640;52.520;13.456;2022-07-06T17:15:45;20.00;93.50
22948;DHT22;11640;52.520;13.456;2022-07-06T17:20:55;20.10;93.90
22948;DHT22;11640;52.520;13.456;2022-07-06T17:25:57;19.90;94.50
22948;DHT22;11640;52.520;13.456;2022-07-06T17:30:59;19.60;95.30
22948;DHT22;11640;52.520;13.456;2022-07-06T17:36:01;19.70;95.30
22948;DHT22;11640;52.520;13.456;2022-07-06T17:41:03;19.50;96.10
22948;DHT22;11640;52.520;13.456;2022-07-06T17:46:05;19.40;96.60
22948;DHT22;11640;52.520;13.456;2022-07-06T17:51:07;19.30;97.10
22948;DHT22;11640;52.520;13.456;2022-07-06T17:56:09;19.30;97.40
22948;DHT22;11640;52.520;13.456;2022-07-06T18:01:11;19.30;97.90
22948;DHT22;11640;52.520;13.456;2022-07-06T18:06:13;19.30;98.10
22948;DHT22;11640;52.520;13.456;2022-07-06T18:11:15;19.30;98.30
22948;DHT22;11640;52.520;13.456;2022-07-06T18:16:17;19.20;98.70
22948;DHT22;11640;52.520;13.456;2022-07-06T18:21:19;19.20;99.00
22948;DHT22;11640;52.520;13.456;2022-07-06T18:26:21;19.00;99.40
22948;DHT22;11640;52.520;13.456;2022-07-06T18:31:23;18.90;99.80
22948;DHT22;11640;52.520;13.456;2022-07-06T18:36:24;18.80;99.90
22948;DHT22;11640;52.520;13.456;2022-07-06T18:41:30;18.70;99.90
22948;DHT22;11640;52.520;13.456;2022-07-06T18:46:32;18.70;99.90
22948;DHT22;11640;52.520;13.456;2022-07-06T18:51:34;18.60;99.90
22948;DHT22;11640;52.520;13.456;2022-07-06T18:56:39;18.60;99.90
22948;DHT22;11640;52.520;13.456;2022-07-06T19:01:41;18.60;99.60
22948;DHT22;11640;52.520;13.456;2022-07-06T19:06:43;18.60;98.30
22948;DHT22;11640;52.520;13.456;2022-07-06T19:11:44;18.50;97.60
22948;DHT22;11640;52.520;13.456;2022-07-06T19:16:46;18.50;97.80
22948;DHT22;11640;52.520;13.456;2022-07-06T19:21:48;18.60;97.40
22948;DHT22;11640;52.520;13.456;2022-07-06T19:26:51;18.40;97.80
22948;DHT22;11640;52.520;13.456;2022-07-06T19:31:53;18.50;97.90
22948;DHT22;11640;52.520;13.456;2022-07-06T19:36:55;18.40;97.90
22948;DHT22;11640;52.520;13.456;2022-07-06T19:41:57;18.20;98.20
22948;DHT22;11640;52.520;13.456;2022-07-06T19:46:59;18.10;98.50
22948;DHT22;11640;52.520;13.456;2022-07-06T19:52:01;18.00;98.60
22948;DHT22;11640;52.520;13.456;2022-07-06T19:57:03;17.90;99.10
22948;DHT22;11640;52.520;13.456;2022-07-06T20:02:06;17.80;99.10
22948;DHT22;11640;52.520;13.456;2022-07-06T20:07:08;17.80;99.40
22948;DHT22;11640;52.520;13.456;2022-07-06T20:12:11;17.70;99.70
22948;DHT22;11640;52.520;13.456;2022-07-06T20:17:12;17.70;99.80
22948;DHT22;11640;52.520;13.456;2022-07-06T20:22:14;17.60;99.90
22948;DHT22;11640;52.520;13.456;2022-07-06T20:27:16;17.50;99.90
22948;DHT22;11640;52.520;13.456;2022-07-06T20:32:18;17.50;99.90
22948;DHT22;11640;52.520;13.456;2022-07-06T20:37:20;17.50;99.90
22948;DHT22;11640;52.520;13.456;2022-07-06T20:42:22;17.40;99.90
22948;DHT22;11640;52.520;13.456;2022-07-06T20:47:23;17.40;99.90
22948;DHT22;11640;52.520;13.456;2022-07-06T20:52:26;17.30;99.90
22948;DHT22;11640;52.520;13.456;2022-07-06T20:57:28;17.30;99.90
22948;DHT22;11640;52.520;13.456;2022-07-06T21:02:30;17.30;99.90
22948;DHT22;11640;52.520;13.456;2022-07-06T21:07:32;17.30;99.90
22948;DHT22;11640;52.520;13.456;2022-07-06T21:12:33;17.20;99.90
22948;DHT22;11640;52.520;13.456;2022-07-06T21:17:35;17.30;99.90
22948;DHT22;11640;52.520;13.456;2022-07-06T21:22:37;17.20;99.90
22948;DHT22;11640;52.520;13.456;2022-07-06T21:27:39;17.20;99.90
22948;DHT22;11640;52.520;13.456;2022-07-06T21:32:41;17.10;99.90
22948;DHT22;11640;52.520;13.456;2022-07-06T21:37:43;17.00;99.90
22948;DHT22;11640;52.520;13.456;2022-07-06T21:42:45;17.00;99.90
22948;DHT22;11640;52.520;13.456;2022-07-06T21:47:47;17.00;99.90
22948;DHT22;11640;52.520;13.456;2022-07-06T21:52:49;16.90;99.90
22948;DHT22;11640;52.520;13.456;2022-07-06T21:57:50;16.90;99.90
22948;DHT22;11640;52.520;13.456;2022-07-06T22:02:52;16.80;99.90
22948;DHT22;11640;52.520;13.456;2022-07-06T22:07:54;16.80;99.90
22948;DHT22;11640;52.520;13.456;2022-07-06T22:12:57;16.70;99.90
22948;DHT22;11640;52.520;13.456;2022-07-06T22:17:58;16.70;99.90
22948;DHT22;11640;52.520;13.456;2022-07-06T22:23:00;16.60;99.90
22948;DHT22;11640;52.520;13.456;2022-07-06T22:28:03;16.50;99.90
22948;DHT22;11640;52.520;13.456;2022-07-06T22:33:05;16.50;99.90
22948;DHT22;11640;52.520;13.456;2022-07-06T22:38:07;16.40;99.90
22948;DHT22;11640;52.520;13.456;2022-07-06T22:43:09;16.30;99.90
22948;DHT22;11640;52.520;13.456;2022-07-06T22:48:10;16.40;99.90
22948;DHT22;11640;52.520;13.456;2022-07-06T22:53:12;16.40;99.90
22948;DHT22;11640;52.520;13.456;2022-07-06T22:58:14;16.40;99.90
22948;DHT22;11640;52.520;13.456;2022-07-06T23:03:16;16.40;99.90
22948;DHT22;11640;52.520;13.456;2022-07-06T23:08:18;16.40;99.90
22948;DHT22;11640;52.520;13.456;2022-07-06T23:13:20;16.50;99.90
22948;DHT22;11640;52.520;13.456;2022-07-06T23:18:23;16.50;99.90
22948;DHT22;11640;52.520;13.456;2022-07-06T23:23:25;16.50;99.90
22948;DHT22;11640;52.520;13.456;2022-07-06T23:28:27;16.50;99.90
22948;DHT22;11640;52.520;13.456;2022-07-06T23:33:29;16.50;99.90
22948;DHT22;11640;52.520;13.456;2022-07-06T23:38:31;16.50;99.90
22948;DHT22;11640;52.520;13.456;2022-07-06T23:43:33;16.50;99.90
22948;DHT22;11640;52.520;13.456;2022-07-06T23:48:36;16.50;99.90
22948;DHT22;11640;52.520;13.456;2022-07-06T23:53:37;16.50;99.90
22948;DHT22;11640;52.520;13.456;2022-07-06T23:58:39;16.50;99.90
